Time;durP1;ratioP1;P1;durP2;ratioP2;P2;SDS_P1;SDS_P2;PMS_P1;PMS_P2;Temp;Humidity;BMP_temperature;BMP_pressure;BME280_temperature;BME280_humidity;BME280_pressure;Samples;Min_cycle;Max_cycle;Signal;HPM_P1;HPM_P2
2021/12/17 00:02:43;;;;;;;63.92;14.85;;;12.40;99.90;;;;;;6154462;23;20014;-86
2021/12/17 00:07:25;;;;;;;70.82;15.75;;;10.00;99.90;;;;;;6179103;23;20021;-86
2021/12/17 00:09:54;;;;;;;53.05;14.48;;;11.00;99.90;;;;;;6179006;23;20024;-87
2021/12/17 00:12:22;;;;;;;49.20;13.13;;;10.30;99.90;;;;;;6154415;23;20546;-86
2021/12/17 00:14:49;;;;;;;41.22;11.85;;;10.50;99.90;;;;;;6154060;23;20013;-87
2021/12/17 00:17:22;;;;;;;41.58;11.60;;;12.90;99.90;;;;;;6153998;23;20396;-86
2021/12/17 00:20:14;;;;;;;41.50;12.05;;;9.90;99.90;;;;;;6153800;23;20085;-86
2021/12/17 00:50:05;;;;;;;39.20;11.25;;;11.00;99.90;;;;;;6178343;23;20029;-86
2021/12/17 00:52:34;;;;;;;50.13;11.60;;;11.00;99.90;;;;;;6178369;23;20013;-88
2021/12/17 00:55:01;;;;;;;56.90;12.60;;;10.00;99.90;;;;;;6153963;23;20021;-86
2021/12/17 00:57:34;;;;;;;45.03;11.80;;;12.30;99.90;;;;;;6153766;23;20017;-87
2021/12/17 01:00:04;;;;;;;48.15;12.70;;;12.50;99.90;;;;;;6178758;23;20145;-86
2021/12/17 01:02:33;;;;;;;49.08;11.95;;;10.80;99.90;;;;;;6178593;23;20359;-86
2021/12/17 01:05:01;;;;;;;52.60;12.50;;;10.00;99.90;;;;;;6178757;23;20071;-86
2021/12/17 01:07:31;;;;;;;49.10;12.48;;;9.90;99.90;;;;;;6153447;23;20021;-86
2021/12/17 01:09:56;;;;;;;43.63;10.85;;;10.60;99.90;;;;;;6178370;23;20104;-86
2021/12/17 01:12:24;;;;;;;53.40;11.95;;;11.40;99.90;;;;;;6154223;23;20392;-86
2021/12/17 01:14:51;;;;;;;35.75;10.30;;;10.80;99.90;;;;;;6178209;23;20033;-86
2021/12/17 01:17:19;;;;;;;36.00;10.90;;;10.60;99.90;;;;;;6153863;23;20013;-86
2021/12/17 01:20:17;;;;;;;30.90;9.27;;;9.80;99.90;;;;;;6178493;23;20348;-87
2021/12/17 01:22:59;;;;;;;59.30;11.98;;;11.60;99.90;;;;;;6177876;23;20017;-87
2021/12/17 01:36:20;;;;;;;33.97;10.30;;;9.90;99.90;;;;;;6178472;23;20461;-86
2021/12/17 01:44:14;;;;;;;57.65;11.50;;;11.50;99.90;;;;;;6178334;23;20394;-86
2021/12/17 01:46:41;;;;;;;63.70;11.15;;;9.70;99.90;;;;;;6153380;23;20013;-87
2021/12/17 01:59:52;;;;;;;94.30;13.35;;;10.90;99.90;;;;;;6178146;23;20024;-86
2021/12/17 02:02:18;;;;;;;50.72;11.32;;;12.10;99.90;;;;;;6178746;23;20455;-86
2021/12/17 02:04:44;;;;;;;86.45;12.32;;;10.10;99.90;;;;;;6179320;23;20025;-87
2021/12/17 02:07:10;;;;;;;82.13;13.05;;;9.60;99.90;;;;;;6179610;23;20016;-86
2021/12/17 02:12:34;;;;;;;83.78;14.02;;;10.90;99.90;;;;;;6204405;23;20358;-86
2021/12/17 02:29:54;;;;;;;59.67;11.55;;;12.40;99.90;;;;;;6201576;23;20454;-86
2021/12/17 02:32:20;;;;;;;39.85;10.20;;;10.90;99.90;;;;;;6155094;23;20029;-87
2021/12/17 02:35:16;;;;;;;41.17;9.20;;;10.40;99.90;;;;;;6154224;23;20048;-86
2021/12/17 02:37:45;;;;;;;30.50;7.78;;;10.80;99.90;;;;;;6179177;23;20096;-87
2021/12/17 02:42:24;;;;;;;37.20;8.60;;;9.70;99.90;;;;;;6154699;23;20017;-86
2021/12/17 02:45:36;;;;;;;42.20;8.75;;;10.70;99.90;;;;;;6204363;23;20060;-87
2021/12/17 02:48:07;;;;;;;37.40;9.07;;;11.60;99.90;;;;;;6179297;23;20430;-87
2021/12/17 02:50:35;;;;;;;41.85;8.63;;;9.60;99.90;;;;;;6154678;23;20013;-87
2021/12/17 02:53:02;;;;;;;42.25;9.15;;;10.30;99.90;;;;;;6179329;23;20017;-86
2021/12/17 02:55:30;;;;;;;48.08;9.57;;;9.50;99.90;;;;;;6179820;23;20009;-86
2021/12/17 02:57:56;;;;;;;48.63;10.18;;;9.70;99.90;;;;;;6179155;23;20017;-86
2021/12/17 03:00:22;;;;;;;57.22;9.93;;;10.70;99.90;;;;;;6154481;23;20024;-86
2021/12/17 03:02:49;;;;;;;55.95;9.85;;;11.00;99.90;;;;;;6154119;23;20048;-87
2021/12/17 03:05:15;;;;;;;60.97;10.77;;;10.30;99.90;;;;;;6179372;23;20048;-86
2021/12/17 03:07:45;;;;;;;44.22;10.45;;;11.90;99.90;;;;;;6178857;23;20023;-86
2021/12/17 03:10:12;;;;;;;50.22;11.25;;;12.30;99.90;;;;;;6154737;23;20014;-86
2021/12/17 03:15:18;;;;;;;42.28;10.43;;;11.60;99.90;;;;;;6179206;23;20025;-87
2021/12/17 03:23:28;;;;;;;58.55;10.30;;;10.10;99.90;;;;;;6179059;23;20029;-86
2021/12/17 03:25:54;;;;;;;50.22;11.70;;;9.70;99.90;;;;;;6178702;23;20026;-87
2021/12/17 03:28:20;;;;;;;49.90;11.38;;;11.10;99.90;;;;;;6179244;23;20017;-87
2021/12/17 03:30:47;;;;;;;57.67;11.88;;;9.40;99.90;;;;;;6178801;23;20017;-87
2021/12/17 03:33:13;;;;;;;71.75;13.60;;;10.70;99.90;;;;;;6179334;23;20024;-86
2021/12/17 03:35:38;;;;;;;88.93;14.18;;;11.70;99.90;;;;;;6179051;23;20331;-86
2021/12/17 03:38:04;;;;;;;82.88;13.52;;;10.10;99.90;;;;;;6179240;23;20021;-86
2021/12/17 03:40:32;;;;;;;80.00;13.07;;;11.20;99.90;;;;;;6179314;23;20028;-86
2021/12/17 03:43:03;;;;;;;87.35;13.70;;;9.50;99.90;;;;;;6153969;23;20458;-87
2021/12/17 03:45:29;;;;;;;88.80;14.13;;;11.40;99.90;;;;;;6178928;23;20025;-86
2021/12/17 03:47:55;;;;;;;81.45;13.95;;;10.30;99.90;;;;;;6178705;23;20021;-86
2021/12/17 03:50:22;;;;;;;91.50;14.80;;;10.40;99.90;;;;;;6154482;23;20013;-86
2021/12/17 03:52:51;;;;;;;83.50;13.82;;;12.30;99.90;;;;;;6153976;23;20017;-86
2021/12/17 03:55:17;;;;;;;101.07;16.38;;;9.50;99.90;;;;;;6179058;23;20100;-87
2021/12/17 03:57:42;;;;;;;103.03;15.90;;;11.70;99.90;;;;;;6153959;23;20419;-87
2021/12/17 04:00:10;;;;;;;96.43;15.70;;;12.40;99.90;;;;;;6179134;23;20021;-86
2021/12/17 04:02:36;;;;;;;105.60;16.02;;;10.90;99.90;;;;;;6154307;23;20013;-86
2021/12/17 04:05:03;;;;;;;122.07;17.40;;;9.40;99.90;;;;;;6154969;23;20013;-87
2021/12/17 04:07:29;;;;;;;127.13;17.52;;;10.30;99.90;;;;;;6154297;23;20021;-86
2021/12/17 04:09:55;;;;;;;141.70;19.08;;;10.40;99.90;;;;;;6154123;23;20017;-87
2021/12/17 04:12:28;;;;;;;131.27;18.05;;;10.50;99.90;;;;;;6179062;23;20014;-87
2021/12/17 04:14:54;;;;;;;122.85;17.30;;;12.00;99.90;;;;;;6178954;23;20016;-86
2021/12/17 04:17:24;;;;;;;150.93;18.83;;;13.00;99.90;;;;;;6179104;23;20017;-86
2021/12/17 04:19:50;;;;;;;117.68;17.20;;;11.20;99.90;;;;;;6154321;23;20372;-87
2021/12/17 04:22:16;;;;;;;137.95;19.55;;;12.70;99.90;;;;;;6179041;23;20092;-87
2021/12/17 04:24:42;;;;;;;116.72;18.65;;;11.30;99.90;;;;;;6153129;23;20051;-87
2021/12/17 04:27:08;;;;;;;143.80;19.05;;;9.90;99.90;;;;;;6154202;23;20025;-87
2021/12/17 04:29:40;;;;;;;178.77;19.10;;;11.50;99.90;;;;;;6178430;23;20145;-89
2021/12/17 04:32:06;;;;;;;196.88;19.67;;;10.90;99.90;;;;;;6154374;23;20017;-87
2021/12/17 04:34:32;;;;;;;162.52;19.42;;;9.30;99.90;;;;;;6178943;23;20070;-87
2021/12/17 04:36:58;;;;;;;159.07;19.30;;;9.80;99.90;;;;;;6154127;23;20016;-86
2021/12/17 04:39:24;;;;;;;193.80;18.90;;;9.80;99.90;;;;;;6178729;23;20059;-86
2021/12/17 04:41:56;;;;;;;202.50;19.38;;;10.60;99.90;;;;;;6153787;23;20028;-86
2021/12/17 04:44:27;;;;;;;169.00;19.52;;;10.50;99.90;;;;;;6178854;23;20051;-87
2021/12/17 04:57:13;;;;;;;245.68;20.85;;;11.40;99.90;;;;;;6153733;23;20025;-86
2021/12/17 04:57:56;;;;;;;247.98;20.83;;;10.50;99.90;;;;;;6178411;23;20028;-86
2021/12/17 05:00:26;;;;;;;225.38;20.85;;;11.50;99.90;;;;;;6154172;23;20017;-86
2021/12/17 05:02:55;;;;;;;245.32;19.42;;;10.90;99.90;;;;;;6153650;23;20048;-86
2021/12/17 05:05:27;;;;;;;149.20;18.95;;;12.90;99.90;;;;;;6154099;23;20100;-87
2021/12/17 05:07:57;;;;;;;235.50;20.23;;;10.80;99.90;;;;;;6178160;23;20017;-87
2021/12/17 05:18:39;;;;;;;169.30;18.13;;;11.90;99.90;;;;;;6178551;23;20036;-86
2021/12/17 05:21:08;;;;;;;104.63;17.10;;;9.60;99.90;;;;;;6153853;23;20021;-87
2021/12/17 05:23:42;;;;;;;91.45;15.73;;;11.00;99.90;;;;;;6154016;23;20028;-87
2021/12/17 05:26:11;;;;;;;118.90;14.93;;;9.40;99.90;;;;;;6154110;23;20025;-86
2021/12/17 05:28:37;;;;;;;123.00;16.02;;;10.40;99.90;;;;;;6153696;23;20021;-87
2021/12/17 05:31:04;;;;;;;147.10;16.92;;;10.90;99.90;;;;;;6138234;23;20070;-86
2021/12/17 05:33:29;;;;;;;127.90;15.60;;;10.40;99.90;;;;;;6179008;23;20713;-87
2021/12/17 05:35:56;;;;;;;97.32;15.80;;;11.30;99.90;;;;;;6153649;23;20047;-86
2021/12/17 05:38:24;;;;;;;80.78;14.88;;;12.50;99.90;;;;;;6178832;23;20473;-87
2021/12/17 05:40:50;;;;;;;115.00;16.52;;;9.40;99.90;;;;;;6178560;23;20013;-87
2021/12/17 05:43:16;;;;;;;122.47;17.83;;;11.90;99.90;;;;;;6153834;23;20347;-86
2021/12/17 05:45:51;;;;;;;94.55;16.17;;;12.70;99.90;;;;;;6178472;23;20029;-87
2021/12/17 05:48:20;;;;;;;72.93;14.38;;;10.10;99.90;;;;;;6178858;23;20020;-86
2021/12/17 05:50:48;;;;;;;91.90;14.98;;;10.70;99.90;;;;;;6178422;23;20024;-86
2021/12/17 05:53:14;;;;;;;73.95;14.95;;;10.60;99.90;;;;;;6178546;23;20389;-86
2021/12/17 05:55:40;;;;;;;117.38;17.05;;;10.00;99.90;;;;;;6178299;23;20013;-87
2021/12/17 05:58:07;;;;;;;99.53;15.52;;;11.20;99.90;;;;;;6178349;23;20327;-86
2021/12/17 06:00:34;;;;;;;63.08;14.60;;;11.60;99.90;;;;;;6177438;23;20444;-86
2021/12/17 06:03:00;;;;;;;80.25;14.70;;;10.70;99.90;;;;;;6153452;23;20028;-87
2021/12/17 06:05:27;;;;;;;72.85;14.93;;;10.40;99.90;;;;;;6153706;23;20494;-87
2021/12/17 06:07:53;;;;;;;80.13;13.65;;;9.70;99.90;;;;;;6178051;23;20021;-86
2021/12/17 06:10:19;;;;;;;76.70;12.07;;;12.30;99.90;;;;;;6153671;23;20021;-87
2021/12/17 06:12:45;;;;;;;86.40;13.32;;;10.20;99.90;;;;;;6153410;23;20036;-86
2021/12/17 06:15:15;;;;;;;107.80;14.40;;;10.50;99.90;;;;;;6153747;23;20014;-87
2021/12/17 06:17:41;;;;;;;78.13;13.48;;;9.40;99.90;;;;;;6153542;23;20362;-87
2021/12/17 06:20:12;;;;;;;85.47;15.10;;;9.90;99.90;;;;;;6153588;23;20014;-87
2021/12/17 06:22:38;;;;;;;79.28;14.18;;;11.50;99.90;;;;;;6178337;23;20018;-87
2021/12/17 06:25:05;;;;;;;79.40;14.95;;;9.90;99.90;;;;;;6178084;23;20017;-87
2021/12/17 06:27:31;;;;;;;69.75;14.40;;;9.80;99.90;;;;;;6153571;23;20066;-87
2021/12/17 06:29:57;;;;;;;70.55;13.55;;;9.90;99.90;;;;;;6153212;23;20603;-86
2021/12/17 06:32:24;;;;;;;55.70;13.25;;;11.70;99.90;;;;;;6153114;23;20060;-87
2021/12/17 06:34:51;;;;;;;59.75;12.82;;;12.20;99.90;;;;;;6153185;23;20028;-87
2021/12/17 06:37:17;;;;;;;63.15;13.13;;;10.30;99.90;;;;;;6153426;23;20129;-87
2021/12/17 06:39:48;;;;;;;54.22;12.63;;;11.10;99.90;;;;;;6177834;23;20024;-87
2021/12/17 06:42:15;;;;;;;64.20;13.57;;;11.50;99.90;;;;;;6153412;23;20017;-86
2021/12/17 06:44:43;;;;;;;57.70;13.25;;;11.40;99.90;;;;;;6177924;23;20051;-87
2021/12/17 06:47:26;;;;;;;72.32;14.35;;;9.60;99.90;;;;;;6177997;23;20377;-86
2021/12/17 07:11:15;;;;;;;78.43;15.85;;;10.40;99.90;;;;;;6179190;23;20063;-86
2021/12/17 07:32:31;;;;;;;78.72;14.93;;;10.70;99.90;;;;;;6179362;23;20048;-91
2021/12/17 07:40:20;;;;;;;62.28;14.40;;;10.90;99.90;;;;;;6179446;23;20082;-87
2021/12/17 07:42:45;;;;;;;55.38;14.38;;;10.60;99.90;;;;;;6178809;23;20025;-86
2021/12/17 07:45:11;;;;;;;56.38;15.13;;;9.90;99.90;;;;;;6179498;23;20063;-88
2021/12/17 07:47:37;;;;;;;47.05;12.15;;;10.50;99.90;;;;;;6154493;23;20024;-87
2021/12/17 07:50:03;;;;;;;50.40;12.88;;;11.10;99.90;;;;;;6179009;23;20028;-86
2021/12/17 07:52:28;;;;;;;52.67;13.57;;;9.70;99.90;;;;;;6179570;23;20017;-86
2021/12/17 07:54:54;;;;;;;48.47;13.23;;;10.50;99.90;;;;;;6178620;23;20028;-86
2021/12/17 07:57:20;;;;;;;52.92;12.65;;;9.90;99.90;;;;;;6179000;23;20017;-86
2021/12/17 07:59:46;;;;;;;39.22;11.20;;;10.70;99.90;;;;;;6154278;23;20025;-89
2021/12/17 08:02:11;;;;;;;29.95;9.88;;;10.20;99.90;;;;;;6179272;23;20013;-88
2021/12/17 08:04:37;;;;;;;26.30;9.07;;;11.30;99.90;;;;;;6179514;23;20056;-88
2021/12/17 08:07:03;;;;;;;24.75;8.90;;;10.90;99.90;;;;;;6154105;23;20024;-86
2021/12/17 08:09:29;;;;;;;27.98;8.95;;;10.40;99.90;;;;;;6179528;23;20036;-86
2021/12/17 08:11:56;;;;;;;27.80;9.57;;;10.70;99.90;;;;;;6178955;23;20020;-87
2021/12/17 08:14:25;;;;;;;24.23;8.40;;;11.50;99.90;;;;;;6154199;23;20073;-87
2021/12/17 08:16:59;;;;;;;24.85;8.57;;;10.90;99.90;;;;;;6154195;23;20019;-85
2021/12/17 08:30:06;;;;;;;21.73;7.47;;;12.10;99.90;;;;;;6204367;23;20017;-86
2021/12/17 08:32:32;;;;;;;15.93;6.88;;;10.30;99.90;;;;;;6138285;23;20100;-86
2021/12/17 08:34:58;;;;;;;18.58;7.18;;;12.20;99.90;;;;;;6179238;23;20485;-89
2021/12/17 08:37:23;;;;;;;16.38;6.45;;;10.90;99.90;;;;;;6179322;23;20104;-85
2021/12/17 08:39:49;;;;;;;15.93;6.72;;;10.30;99.90;;;;;;6178659;23;20021;-84
2021/12/17 08:42:15;;;;;;;13.07;5.35;;;12.50;99.90;;;;;;6154017;23;20095;-87
2021/12/17 08:44:41;;;;;;;11.05;5.45;;;10.40;99.90;;;;;;6154226;23;20019;-84
2021/12/17 08:47:06;;;;;;;12.55;5.82;;;12.30;99.90;;;;;;6178665;23;20020;-85
2021/12/17 08:49:32;;;;;;;14.55;6.30;;;10.60;99.90;;;;;;6179083;22;20067;-87
2021/12/17 08:51:58;;;;;;;16.98;6.45;;;10.80;99.90;;;;;;6153934;23;20009;-86
2021/12/17 08:54:24;;;;;;;17.80;5.95;;;10.90;99.90;;;;;;6154240;23;20384;-87
2021/12/17 08:56:52;;;;;;;12.15;6.32;;;10.60;99.90;;;;;;6154064;23;20293;-87
2021/12/17 08:59:18;;;;;;;15.30;6.47;;;11.10;99.90;;;;;;6154574;23;20021;-86
2021/12/17 09:01:45;;;;;;;15.98;6.55;;;11.00;99.90;;;;;;6154107;23;20009;-86
2021/12/17 09:04:11;;;;;;;12.30;6.43;;;10.60;99.90;;;;;;6154318;23;20451;-85
2021/12/17 09:06:37;;;;;;;10.10;5.55;;;10.70;99.90;;;;;;6154001;23;20020;-88
2021/12/17 09:09:04;;;;;;;9.75;5.53;;;10.90;99.90;;;;;;6153624;23;20087;-88
2021/12/17 09:11:30;;;;;;;16.33;5.90;;;12.10;99.90;;;;;;6179025;23;20013;-87
2021/12/17 09:13:58;;;;;;;9.50;5.32;;;11.70;99.90;;;;;;6153817;23;20100;-87
2021/12/17 09:16:24;;;;;;;11.55;5.38;;;10.90;99.90;;;;;;6154064;23;20009;-87
2021/12/17 09:18:55;;;;;;;13.90;5.80;;;10.70;99.90;;;;;;6153814;23;20020;-88
2021/12/17 09:21:21;;;;;;;13.25;5.88;;;10.70;99.90;;;;;;6179122;23;20025;-87
2021/12/17 09:23:47;;;;;;;12.02;6.38;;;10.90;99.90;;;;;;6141691;23;20025;-86
2021/12/17 09:26:15;;;;;;;10.02;6.05;;;11.10;99.90;;;;;;6177903;23;20078;-87
2021/12/17 09:28:41;;;;;;;10.35;6.32;;;10.70;99.90;;;;;;6178362;23;20017;-88
2021/12/17 09:31:11;;;;;;;13.95;6.20;;;11.10;99.90;;;;;;6153553;23;20054;-87
2021/12/17 09:33:38;;;;;;;10.52;7.13;;;11.00;99.90;;;;;;6153560;23;20024;-86
2021/12/17 09:36:05;;;;;;;11.73;6.60;;;12.60;99.90;;;;;;6153759;23;20394;-86
2021/12/17 09:38:30;;;;;;;8.65;6.03;;;10.60;99.90;;;;;;6154227;23;20028;-85
2021/12/17 09:40:58;;;;;;;9.07;6.80;;;10.70;99.90;;;;;;6153508;23;20017;-86
2021/12/17 09:43:24;;;;;;;8.95;5.90;;;11.00;99.90;;;;;;6153581;23;20053;-86
2021/12/17 09:45:50;;;;;;;11.20;6.40;;;10.90;99.90;;;;;;6178304;23;20024;-86
2021/12/17 09:48:19;;;;;;;8.73;5.70;;;10.90;99.90;;;;;;6153312;23;20009;-86
2021/12/17 09:50:45;;;;;;;7.82;5.88;;;11.20;99.90;;;;;;6153828;23;20013;-86
2021/12/17 09:53:10;;;;;;;10.02;5.65;;;10.80;99.90;;;;;;6153746;23;20020;-88
2021/12/17 09:55:37;;;;;;;6.82;5.93;;;10.80;99.90;;;;;;6153896;23;20021;-86
2021/12/17 09:58:03;;;;;;;7.93;5.00;;;10.20;99.90;;;;;;6153255;23;20017;-87
2021/12/17 10:00:29;;;;;;;7.85;5.75;;;12.50;99.90;;;;;;6178374;23;20023;-87
2021/12/17 10:02:54;;;;;;;7.38;4.93;;;11.40;99.90;;;;;;6153462;23;20442;-87
2021/12/17 10:05:25;;;;;;;7.93;5.70;;;10.70;99.90;;;;;;6178439;23;20013;-86
2021/12/17 10:07:56;;;;;;;8.70;5.50;;;10.80;99.90;;;;;;6177964;23;20391;-86
2021/12/17 10:10:35;;;;;;;4.82;4.32;;;11.20;99.90;;;;;;6178179;23;20013;-87
2021/12/17 10:13:10;;;;;;;7.63;4.93;;;11.30;99.90;;;;;;6159147;23;20070;-86
2021/12/17 10:15:37;;;;;;;5.40;4.88;;;12.00;99.90;;;;;;6153510;23;20013;-88
2021/12/17 10:18:03;;;;;;;6.55;4.78;;;12.70;99.90;;;;;;6178164;23;20466;-87
2021/12/17 10:20:32;;;;;;;6.13;4.50;;;11.70;99.90;;;;;;6178272;23;20045;-87
2021/12/17 10:23:08;;;;;;;6.95;4.35;;;11.50;99.90;;;;;;6153633;23;20485;-87
2021/12/17 10:25:37;;;;;;;5.50;3.00;;;11.30;99.90;;;;;;6154941;23;20319;-87
2021/12/17 10:28:05;;;;;;;4.60;3.72;;;10.90;99.90;;;;;;6154503;23;20025;-86
2021/12/17 10:30:34;;;;;;;7.22;4.65;;;11.20;99.90;;;;;;6155015;23;20013;-89
2021/12/17 10:33:03;;;;;;;4.63;3.88;;;11.40;99.90;;;;;;6154084;23;20016;-86
2021/12/17 10:35:32;;;;;;;7.68;4.70;;;11.50;99.90;;;;;;6179348;23;20024;-85
2021/12/17 10:38:02;;;;;;;7.38;4.07;;;12.60;99.90;;;;;;6154458;23;20017;-86
2021/12/17 10:40:33;;;;;;;6.65;3.45;;;11.30;99.90;;;;;;6179556;23;20414;-87
2021/12/17 10:43:07;;;;;;;4.07;3.13;;;11.30;99.90;;;;;;6154843;23;20028;-87
2021/12/17 10:45:37;;;;;;;3.78;3.10;;;10.90;99.90;;;;;;6179612;23;20021;-87
2021/12/17 10:48:23;;;;;;;4.00;3.00;;;12.30;99.90;;;;;;6178879;23;20493;-87
2021/12/17 10:50:53;;;;;;;3.58;3.00;;;11.00;99.90;;;;;;6154717;23;20016;-87
2021/12/17 10:53:24;;;;;;;4.18;2.78;;;11.30;99.90;;;;;;6179637;23;20032;-87
2021/12/17 10:55:50;;;;;;;4.22;3.22;;;11.40;99.90;;;;;;6154738;23;20028;-87
2021/12/17 10:58:15;;;;;;;2.97;2.33;;;12.50;99.90;;;;;;6179413;23;20100;-86
2021/12/17 11:00:47;;;;;;;3.20;2.30;;;11.00;99.90;;;;;;6155462;23;20021;-87
2021/12/17 11:03:13;;;;;;;8.45;3.17;;;12.20;99.90;;;;;;6154536;23;20013;-86
2021/12/17 11:05:39;;;;;;;3.50;3.17;;;13.10;99.90;;;;;;6154903;23;20017;-87
2021/12/17 11:08:24;;;;;;;4.55;3.45;;;11.00;99.90;;;;;;6179167;22;20338;-88
2021/12/17 11:10:58;;;;;;;3.33;2.90;;;10.90;99.90;;;;;;6154499;23;20635;-87
2021/12/17 11:13:25;;;;;;;3.35;2.95;;;9.40;99.90;;;;;;6179543;23;20021;-87
2021/12/17 11:15:52;;;;;;;1.33;1.23;;;11.10;99.90;;;;;;6155189;23;20399;-87
2021/12/17 11:18:19;;;;;;;1.80;1.70;;;11.20;99.90;;;;;;6179640;23;20094;-84
2021/12/17 11:20:46;;;;;;;3.13;2.20;;;11.30;99.90;;;;;;6179443;23;20017;-84
2021/12/17 11:23:14;;;;;;;3.58;2.15;;;11.50;99.90;;;;;;6154538;23;20017;-86
2021/12/17 11:25:45;;;;;;;4.20;2.35;;;11.20;99.90;;;;;;6155165;23;20402;-88
2021/12/17 11:28:12;;;;;;;3.38;2.75;;;11.00;99.90;;;;;;6154439;23;20370;-87
2021/12/17 11:30:41;;;;;;;3.20;2.90;;;11.00;99.90;;;;;;6154924;23;20021;-87
2021/12/17 11:33:07;;;;;;;7.05;2.72;;;13.00;99.90;;;;;;6154355;23;20017;-87
2021/12/17 11:35:37;;;;;;;4.55;2.65;;;11.20;99.90;;;;;;6179337;23;20029;-87
2021/12/17 11:38:11;;;;;;;5.25;3.25;;;11.30;99.90;;;;;;6152526;23;20486;-87
2021/12/17 11:40:44;;;;;;;5.03;4.53;;;13.20;99.90;;;;;;6177806;23;20395;-87
2021/12/17 11:43:28;;;;;;;6.40;5.18;;;11.30;99.90;;;;;;6152482;23;20021;-87
2021/12/17 11:46:00;;;;;;;7.32;5.18;;;11.40;99.90;;;;;;6152876;23;20025;-87
2021/12/17 11:48:29;;;;;;;4.65;4.15;;;9.80;99.90;;;;;;6177121;23;20017;-87
2021/12/17 11:51:12;;;;;;;4.43;4.03;;;11.30;99.90;;;;;;6177501;23;20073;-87
2021/12/17 11:53:43;;;;;;;6.60;4.18;;;13.20;99.90;;;;;;6152975;23;20028;-87
2021/12/17 11:56:09;;;;;;;5.03;4.03;;;11.30;99.90;;;;;;6177145;23;20017;-87
2021/12/17 11:58:50;;;;;;;6.35;3.92;;;11.80;99.90;;;;;;6153152;23;20110;-87
2021/12/17 12:01:49;;;;;;;4.82;4.05;;;11.20;99.90;;;;;;6176684;23;20013;-86
2021/12/17 12:04:22;;;;;;;7.22;4.30;;;11.30;99.90;;;;;;6178036;23;20028;-86
2021/12/17 12:07:04;;;;;;;4.60;4.07;;;12.30;99.90;;;;;;6154225;23;20013;-85
2021/12/17 12:09:58;;;;;;;5.10;4.10;;;11.00;99.90;;;;;;6154522;23;20017;-89
2021/12/17 12:12:53;;;;;;;4.90;4.40;;;12.20;99.90;;;;;;6154627;23;20073;-91
2021/12/17 12:15:20;;;;;;;6.15;4.70;;;11.40;99.90;;;;;;6154373;23;20021;-86
2021/12/17 12:18:03;;;;;;;7.43;4.40;;;12.90;99.90;;;;;;6154507;23;20013;-88
2021/12/17 12:20:46;;;;;;;4.63;4.10;;;11.40;99.90;;;;;;6154917;23;20024;-87
2021/12/17 12:23:37;;;;;;;6.10;4.10;;;11.80;99.90;;;;;;6178975;23;20036;-86
2021/12/17 12:26:03;;;;;;;3.45;3.15;;;11.10;99.90;;;;;;6178892;23;20109;-88
2021/12/17 12:28:45;;;;;;;4.90;4.38;;;11.30;99.90;;;;;;6154158;23;20355;-85
2021/12/17 12:31:37;;;;;;;7.40;4.13;;;11.30;99.90;;;;;;6154207;23;20537;-88
2021/12/17 12:34:04;;;;;;;4.90;4.40;;;11.60;99.90;;;;;;6136663;23;20147;-89
2021/12/17 12:36:58;;;;;;;5.43;4.05;;;11.40;99.90;;;;;;6154086;23;20021;-89
2021/12/17 12:39:34;;;;;;;8.70;3.70;;;11.20;99.90;;;;;;6154158;23;20070;-87
2021/12/17 12:42:11;;;;;;;5.05;4.28;;;11.00;99.90;;;;;;6178654;23;20578;-85
2021/12/17 12:44:42;;;;;;;4.28;3.88;;;11.30;99.90;;;;;;6179036;23;20013;-87
2021/12/17 12:47:12;;;;;;;5.72;4.30;;;11.40;99.90;;;;;;6178150;23;20020;-87
2021/12/17 12:49:52;;;;;;;6.65;3.80;;;11.40;99.90;;;;;;6155000;23;20017;-88
2021/12/17 12:52:26;;;;;;;4.70;4.07;;;11.40;99.90;;;;;;6178760;23;20444;-84
2021/12/17 12:54:54;;;;;;;5.18;3.83;;;11.30;99.90;;;;;;6178959;23;20013;-88
2021/12/17 12:57:25;;;;;;;7.35;4.13;;;11.60;99.90;;;;;;6179219;23;20013;-84
2021/12/17 12:59:52;;;;;;;4.45;4.03;;;11.90;99.90;;;;;;6178988;23;20017;-89
2021/12/17 13:02:19;;;;;;;6.90;3.33;;;11.50;99.90;;;;;;6178634;23;20095;-86
2021/12/17 13:04:45;;;;;;;4.25;3.85;;;11.30;99.90;;;;;;6178921;23;20028;-84
2021/12/17 13:07:14;;;;;;;7.47;4.10;;;11.00;99.90;;;;;;6153977;23;20020;-88
2021/12/17 13:09:42;;;;;;;4.65;3.83;;;11.20;99.90;;;;;;6154839;23;20049;-84
2021/12/17 13:12:08;;;;;;;4.97;3.70;;;11.50;99.90;;;;;;6153855;23;20017;-87
2021/12/17 13:14:42;;;;;;;6.95;3.65;;;11.00;99.90;;;;;;6153941;23;20028;-86
2021/12/17 13:17:40;;;;;;;7.07;4.05;;;11.30;99.90;;;;;;6154266;23;20013;-83
2021/12/17 13:20:53;;;;;;;6.57;4.35;;;11.30;99.90;;;;;;6178818;23;20028;-88
2021/12/17 13:23:15;;;;;;;5.03;4.40;;;11.10;99.90;;;;;;6178919;23;20017;-86
2021/12/17 13:25:41;;;;;;;4.82;3.70;;;11.10;99.90;;;;;;6179171;23;20013;-85
2021/12/17 13:28:06;;;;;;;4.95;4.30;;;11.80;99.90;;;;;;6153705;23;20099;-88
2021/12/17 13:30:33;;;;;;;5.72;4.40;;;11.50;99.90;;;;;;6179201;23;20017;-87
2021/12/17 13:32:59;;;;;;;5.50;4.60;;;11.20;99.90;;;;;;6154305;23;20021;-87
2021/12/17 13:35:27;;;;;;;4.57;4.18;;;11.40;99.90;;;;;;6151846;23;20024;-87
2021/12/17 13:38:01;;;;;;;6.38;4.38;;;11.00;99.90;;;;;;6178473;23;20024;-85
2021/12/17 13:40:27;;;;;;;8.18;4.20;;;11.80;99.90;;;;;;6178433;23;20017;-85
2021/12/17 13:42:55;;;;;;;5.00;4.30;;;12.80;99.90;;;;;;6153993;23;20021;-89
2021/12/17 13:45:22;;;;;;;24.83;5.03;;;11.50;99.90;;;;;;6153882;23;20049;-86
2021/12/17 13:47:54;;;;;;;5.15;4.10;;;11.20;99.90;;;;;;6153665;23;20067;-85
2021/12/17 13:50:26;;;;;;;5.55;4.57;;;11.30;99.90;;;;;;6178521;23;20043;-86
2021/12/17 13:52:58;;;;;;;4.40;4.00;;;11.20;99.90;;;;;;6153667;23;20017;-86
2021/12/17 13:55:27;;;;;;;6.82;4.47;;;12.30;99.90;;;;;;6153451;23;20335;-86
2021/12/17 13:57:54;;;;;;;8.30;4.35;;;11.00;99.90;;;;;;6179206;23;20048;-86
2021/12/17 14:00:26;;;;;;;5.70;4.53;;;11.40;99.90;;;;;;6179381;22;20104;-87
2021/12/17 14:02:55;;;;;;;7.15;4.65;;;11.00;99.90;;;;;;6179869;23;20439;-87
2021/12/17 14:05:27;;;;;;;6.38;4.28;;;11.40;99.90;;;;;;6154690;23;20024;-87
2021/12/17 14:07:56;;;;;;;5.20;4.40;;;11.40;99.90;;;;;;6154852;23;20385;-87
2021/12/17 14:10:27;;;;;;;5.30;4.78;;;11.10;99.90;;;;;;6155275;23;20081;-88
2021/12/17 14:13:02;;;;;;;7.00;5.05;;;11.00;99.90;;;;;;6179675;23;20025;-86
2021/12/17 14:15:31;;;;;;;5.07;4.57;;;11.10;99.90;;;;;;6154803;23;20020;-86
2021/12/17 14:18:00;;;;;;;6.57;4.97;;;11.10;99.90;;;;;;6180480;23;20013;-87
2021/12/17 14:20:29;;;;;;;7.00;4.60;;;11.40;99.90;;;;;;6179785;23;20019;-85
2021/12/17 14:23:03;;;;;;;5.35;4.30;;;11.00;99.90;;;;;;6179727;23;20070;-85
2021/12/17 14:25:39;;;;;;;5.43;4.20;;;12.00;99.90;;;;;;6179273;23;20032;-87
2021/12/17 14:28:15;;;;;;;14.05;5.13;;;11.40;99.90;;;;;;6154819;23;20021;-87
2021/12/17 14:30:44;;;;;;;11.77;4.90;;;11.00;99.90;;;;;;6179585;23;20021;-87
2021/12/17 14:33:15;;;;;;;4.38;3.95;;;11.20;99.90;;;;;;6179661;22;20013;-87
2021/12/17 14:35:43;;;;;;;5.70;4.32;;;11.30;99.90;;;;;;6155220;22;20202;-86
2021/12/17 14:38:09;;;;;;;10.40;4.95;;;11.30;99.90;;;;;;6154991;23;20117;-88
2021/12/17 14:40:43;;;;;;;6.88;4.90;;;11.10;99.90;;;;;;6179439;23;20009;-87
2021/12/17 14:43:18;;;;;;;5.18;4.35;;;12.90;99.90;;;;;;6179780;23;20020;-86
2021/12/17 14:45:51;;;;;;;14.75;10.00;;;10.90;99.90;;;;;;6179400;23;20381;-84
2021/12/17 14:48:22;;;;;;;14.40;10.88;;;12.90;99.90;;;;;;6179496;23;20024;-84
2021/12/17 15:02:23;;;;;;;67.63;35.47;;;11.00;99.90;;;;;;6179568;23;20397;-84
2021/12/17 15:04:49;;;;;;;45.05;23.38;;;11.20;99.90;;;;;;6179398;23;20021;-87
2021/12/17 15:07:17;;;;;;;22.42;11.80;;;10.90;99.90;;;;;;6179391;23;20017;-87
2021/12/17 15:09:45;;;;;;;15.00;8.35;;;11.10;99.90;;;;;;6153394;23;20046;-87
2021/12/17 15:12:25;;;;;;;8.70;6.22;;;12.30;99.90;;;;;;6154596;23;20028;-86
2021/12/17 15:15:17;;;;;;;8.82;5.35;;;11.40;99.90;;;;;;6154760;23;20110;-87
2021/12/17 15:17:44;;;;;;;11.38;5.43;;;11.10;99.90;;;;;;6179149;22;20025;-87
2021/12/17 15:20:12;;;;;;;8.48;5.50;;;11.00;99.90;;;;;;6154202;23;20458;-89
2021/12/17 15:22:38;;;;;;;9.18;5.82;;;11.20;99.90;;;;;;6154441;23;20013;-87
2021/12/17 15:25:06;;;;;;;6.63;5.32;;;10.80;99.90;;;;;;6154688;23;20017;-84
2021/12/17 15:27:33;;;;;;;6.78;5.07;;;10.70;99.90;;;;;;6154253;23;20013;-87
2021/12/17 15:30:01;;;;;;;6.25;5.28;;;11.20;99.90;;;;;;6154841;23;20066;-83
2021/12/17 15:32:32;;;;;;;7.72;5.95;;;10.90;99.90;;;;;;6154435;23;20045;-90
2021/12/17 15:34:58;;;;;;;5.35;4.75;;;11.20;99.90;;;;;;6154625;23;20021;-83
2021/12/17 15:37:24;;;;;;;5.97;5.03;;;13.10;99.90;;;;;;6154541;23;20017;-85
2021/12/17 15:39:50;;;;;;;8.85;5.07;;;10.70;99.90;;;;;;6154223;23;20015;-83